createdAt,value
2019-02-19T00:00:56.464Z,50.50
2019-02-19T00:03:26.103Z,50.73
2019-02-19T00:05:55.712Z,49.73
2019-02-19T00:08:25.384Z,56.67
2019-02-19T00:10:54.936Z,62.33
2019-02-19T00:13:24.493Z,60.47
2019-02-19T00:15:54.075Z,54.50
2019-02-19T00:18:23.752Z,53.63
2019-02-19T00:20:53.399Z,53.00
2019-02-19T00:23:23.060Z,52.40
2019-02-19T00:25:52.688Z,51.17
2019-02-19T00:28:22.207Z,46.93
2019-02-19T00:30:51.818Z,50.57
2019-02-19T00:33:21.415Z,54.30
2019-02-19T00:35:50.973Z,49.17
2019-02-19T00:38:20.616Z,46.10
2019-02-19T00:40:50.295Z,48.90
2019-02-19T00:43:20.667Z,52.47
2019-02-19T00:45:50.317Z,43.93
2019-02-19T00:48:19.877Z,40.73
2019-02-19T00:50:49.545Z,40.57
2019-02-19T00:53:19.136Z,44.77
2019-02-19T00:55:48.687Z,50.27
2019-02-19T00:58:18.464Z,36.57
2019-02-19T01:00:48.186Z,46.93
2019-02-19T01:03:17.779Z,41.83
2019-02-19T01:05:47.349Z,48.57
2019-02-19T01:08:16.993Z,43.17
2019-02-19T01:10:46.658Z,37.03
2019-02-19T01:13:16.218Z,41.77
2019-02-19T01:15:45.954Z,45.70
2019-02-19T01:18:15.574Z,48.33
2019-02-19T01:20:45.184Z,38.87
2019-02-19T01:23:14.803Z,42.13
2019-02-19T01:25:44.382Z,42.23
2019-02-19T01:28:13.901Z,43.87
2019-02-19T01:30:43.595Z,44.70
2019-02-19T01:33:13.169Z,52.80
2019-02-19T01:35:42.790Z,46.63
2019-02-19T01:38:12.326Z,41.77
2019-02-19T01:40:41.951Z,47.87
2019-02-19T01:43:11.489Z,40.83
2019-02-19T01:45:41.137Z,43.23
2019-02-19T01:48:10.662Z,36.70
2019-02-19T01:50:40.201Z,36.83
2019-02-19T01:53:09.839Z,29.87
2019-02-19T01:55:39.402Z,33.07
2019-02-19T01:58:08.932Z,37.30
2019-02-19T02:00:38.489Z,34.80
2019-02-19T02:03:08.127Z,38.90
2019-02-19T02:05:37.669Z,44.87
2019-02-19T02:08:07.378Z,50.70
2019-02-19T02:10:37.077Z,46.87
2019-02-19T02:13:06.651Z,37.03
2019-02-19T02:15:42.525Z,48.03
2019-02-19T02:18:07.656Z,37.17
2019-02-19T02:20:37.255Z,45.30
2019-02-19T02:23:06.904Z,45.40
2019-02-19T02:25:36.442Z,46.30
2019-02-19T02:28:06.075Z,49.90
2019-02-19T02:30:35.704Z,32.27
2019-02-19T02:33:05.291Z,33.17
2019-02-19T02:35:34.929Z,33.67
2019-02-19T02:38:04.516Z,34.77
2019-02-19T02:40:34.125Z,34.93
2019-02-19T02:43:03.828Z,31.70
2019-02-19T02:45:33.526Z,40.27
2019-02-19T02:48:03.067Z,37.23
2019-02-19T02:50:32.621Z,37.47
2019-02-19T02:53:02.188Z,34.90
2019-02-19T02:55:31.768Z,33.87
2019-02-19T02:58:01.317Z,40.60
2019-02-19T03:00:30.937Z,33.07
2019-02-19T03:03:00.469Z,39.50
2019-02-19T03:05:30.094Z,44.73
2019-02-19T03:08:02.971Z,40.43
2019-02-19T03:10:32.615Z,37.33
2019-02-19T03:13:02.151Z,43.20
2019-02-19T03:15:31.734Z,36.77
2019-02-19T03:18:01.300Z,39.40
2019-02-19T03:20:31.020Z,39.00
2019-02-19T03:23:00.568Z,38.73
2019-02-19T03:25:30.126Z,40.47
2019-02-19T03:27:59.746Z,34.57
2019-02-19T03:30:29.267Z,36.10
2019-02-19T03:32:58.842Z,35.60
2019-02-19T03:35:28.487Z,37.43
2019-02-19T03:37:58.034Z,45.87
2019-02-19T03:40:27.558Z,37.53
2019-02-19T03:42:57.125Z,41.80
2019-02-19T03:45:26.674Z,52.57
2019-02-19T03:47:56.273Z,46.40
2019-02-19T03:50:25.806Z,43.83
2019-02-19T03:52:55.351Z,59.23
2019-02-19T03:55:24.909Z,62.13
2019-02-19T03:57:54.441Z,56.07
2019-02-19T04:00:23.962Z,51.83
2019-02-19T04:02:53.522Z,59.73
2019-02-19T04:05:23.075Z,57.93
2019-02-19T04:07:52.612Z,42.67
2019-02-19T04:10:22.282Z,59.63
2019-02-19T04:12:51.832Z,57.03
2019-02-19T04:15:21.450Z,65.67
2019-02-19T04:17:50.989Z,56.63
2019-02-19T04:20:20.519Z,78.30
2019-02-19T04:22:50.073Z,66.93
2019-02-19T04:25:19.648Z,47.27
2019-02-19T04:27:49.180Z,44.67
2019-02-19T04:30:18.732Z,45.70
2019-02-19T04:32:48.286Z,55.00
2019-02-19T04:35:17.917Z,56.20
2019-02-19T04:37:47.455Z,49.17
2019-02-19T04:40:17.028Z,62.97
2019-02-19T04:42:46.584Z,48.07
2019-02-19T04:45:16.132Z,52.50
2019-02-19T04:47:45.688Z,47.07
2019-02-19T04:50:15.252Z,53.23
2019-02-19T04:52:44.890Z,48.67
2019-02-19T04:55:14.459Z,50.03
2019-02-19T04:57:44.014Z,53.83
2019-02-19T05:00:13.838Z,47.48
2019-02-19T05:02:43.375Z,52.77
2019-02-19T05:05:12.899Z,54.80
2019-02-19T05:07:42.466Z,56.40
2019-02-19T05:10:12.009Z,53.17
2019-02-19T05:12:41.571Z,74.50
2019-02-19T05:15:11.128Z,62.77
2019-02-19T05:17:40.684Z,59.00
2019-02-19T05:20:10.247Z,78.23
2019-02-19T05:22:39.779Z,65.63
2019-02-19T05:25:09.351Z,55.47
2019-02-19T05:27:38.947Z,69.93
2019-02-19T05:30:08.680Z,70.07
2019-02-19T05:32:38.221Z,55.43
2019-02-19T05:35:07.787Z,49.70
2019-02-19T05:37:37.425Z,67.90
2019-02-19T05:40:07.002Z,92.37
2019-02-19T05:42:36.679Z,61.43
2019-02-19T05:45:06.521Z,57.50
2019-02-19T05:47:36.074Z,81.93
2019-02-19T05:50:05.957Z,127.10
2019-02-19T05:52:35.609Z,73.83
2019-02-19T05:55:05.411Z,65.10
2019-02-19T05:57:34.956Z,85.53
2019-02-19T06:00:04.546Z,86.60
2019-02-19T06:02:34.086Z,86.27
2019-02-19T06:05:05.758Z,103.47
2019-02-19T06:07:35.135Z,84.87
2019-02-19T06:10:05.292Z,92.80
2019-02-19T06:12:34.959Z,93.00
2019-02-19T06:15:05.105Z,89.67
2019-02-19T06:17:34.796Z,124.03
2019-02-19T06:20:04.603Z,89.80
2019-02-19T06:22:34.347Z,103.57
2019-02-19T06:25:03.945Z,100.23
2019-02-19T06:27:33.635Z,91.37
2019-02-19T06:30:03.278Z,92.67
2019-02-19T06:32:32.835Z,105.83
2019-02-19T06:35:02.479Z,109.10
2019-02-19T06:37:32.012Z,97.30
2019-02-19T06:40:01.693Z,97.43
2019-02-19T06:42:31.255Z,86.60
2019-02-19T06:45:00.823Z,81.40
2019-02-19T06:47:30.391Z,72.23
2019-02-19T06:50:00.055Z,85.30
2019-02-19T06:52:29.708Z,65.37
2019-02-19T06:54:59.304Z,65.73
2019-02-19T06:57:29.065Z,66.70
2019-02-19T06:59:58.724Z,73.43
2019-02-19T07:02:47.175Z,60.27
2019-02-19T07:05:21.507Z,54.40
2019-02-19T07:07:51.036Z,77.27
2019-02-19T07:10:20.586Z,43.47
2019-02-19T07:12:50.171Z,33.53
2019-02-19T07:15:19.708Z,28.80
2019-02-19T07:17:49.374Z,43.13
2019-02-19T07:20:19.564Z,38.73
2019-02-19T07:22:49.261Z,45.97
2019-02-19T07:25:18.885Z,55.40
2019-02-19T07:27:48.401Z,60.47
2019-02-19T07:30:18.003Z,54.67
2019-02-19T07:32:47.699Z,77.83
2019-02-19T07:35:17.310Z,73.30
2019-02-19T07:37:46.835Z,59.13
2019-02-19T07:40:17.469Z,63.03
2019-02-19T07:42:47.154Z,60.30
2019-02-19T07:45:16.720Z,74.73
2019-02-19T07:47:46.463Z,57.80
2019-02-19T07:50:16.020Z,59.30
2019-02-19T07:52:45.579Z,53.40
2019-02-19T07:55:15.333Z,49.20
2019-02-19T07:57:44.994Z,31.00
2019-02-19T08:00:14.237Z,29.27
2019-02-19T08:02:43.900Z,37.20
2019-02-19T08:05:13.652Z,33.40
2019-02-19T08:07:43.731Z,28.97
2019-02-19T08:10:13.333Z,28.10
2019-02-19T08:12:42.892Z,23.67
2019-02-19T08:15:12.599Z,20.87
2019-02-19T08:17:42.166Z,35.47
2019-02-19T08:20:15.861Z,23.90
2019-02-19T08:22:43.336Z,31.20
2019-02-19T08:25:12.977Z,33.57
2019-02-19T08:27:42.510Z,25.53
2019-02-19T08:30:12.189Z,34.50
2019-02-19T08:32:41.753Z,44.80
2019-02-19T08:35:11.417Z,31.10
2019-02-19T08:37:40.957Z,48.97
2019-02-19T08:40:10.670Z,61.77
2019-02-19T08:42:40.296Z,77.97
2019-02-19T08:45:10.043Z,69.13
2019-02-19T08:47:42.743Z,53.57
2019-02-19T08:50:11.166Z,49.80
2019-02-19T08:52:40.804Z,51.87
2019-02-19T08:55:10.375Z,56.00
2019-02-19T08:57:40.027Z,43.70
2019-02-19T09:00:10.432Z,52.80
2019-02-19T09:02:40.150Z,49.73
2019-02-19T09:05:09.841Z,55.47
2019-02-19T09:07:39.452Z,63.27
2019-02-19T09:10:09.932Z,39.73
2019-02-19T09:12:39.585Z,57.80
2019-02-19T09:15:11.253Z,59.03
2019-02-19T09:17:40.850Z,51.60
2019-02-19T09:20:10.478Z,58.57
2019-02-19T09:22:40.074Z,78.07
2019-02-19T09:25:09.646Z,56.00
2019-02-19T09:27:39.282Z,50.10
2019-02-19T09:30:10.639Z,47.87
2019-02-19T09:32:40.174Z,61.50
2019-02-19T09:35:09.976Z,56.53
2019-02-19T09:37:39.519Z,49.87
2019-02-19T09:40:09.494Z,36.30
2019-02-19T09:42:39.096Z,70.07
2019-02-19T09:45:08.807Z,67.50
2019-02-19T09:47:38.401Z,36.97
2019-02-19T09:50:08.416Z,69.43
2019-02-19T09:52:38.121Z,38.30
2019-02-19T09:55:07.686Z,38.60
2019-02-19T09:57:37.377Z,31.50
2019-02-19T10:00:08.910Z,34.67
2019-02-19T10:02:38.474Z,46.73
2019-02-19T10:05:09.477Z,28.53
2019-02-19T10:07:39.178Z,49.93
2019-02-19T10:10:11.145Z,42.33
2019-02-19T10:12:40.750Z,43.53
2019-02-19T10:15:11.587Z,46.67
2019-02-19T10:17:41.170Z,55.80
2019-02-19T10:20:10.870Z,36.20
2019-02-19T10:22:40.493Z,28.97
2019-02-19T10:25:11.146Z,42.83
2019-02-19T10:27:40.772Z,38.70
2019-02-19T10:30:12.600Z,46.00
2019-02-19T10:32:42.316Z,36.10
2019-02-19T10:35:12.244Z,46.17
2019-02-19T10:37:41.916Z,28.67
2019-02-19T10:40:13.510Z,34.57
2019-02-19T10:42:43.078Z,37.40
2019-02-19T10:45:15.353Z,46.87
2019-02-19T10:47:44.902Z,50.70
2019-02-19T10:50:14.466Z,32.70
2019-02-19T10:52:44.151Z,39.93
2019-02-19T10:55:13.828Z,54.97
2019-02-19T10:57:43.576Z,26.23
2019-02-19T11:00:16.407Z,34.23
2019-02-19T11:02:46.100Z,42.93
2019-02-19T11:05:15.759Z,32.93
2019-02-19T11:07:45.387Z,41.33
2019-02-19T11:10:14.973Z,29.53
2019-02-19T11:12:44.527Z,44.30
2019-02-19T11:15:14.139Z,28.80
2019-02-19T11:17:43.860Z,29.27
2019-02-19T11:20:13.725Z,25.70
2019-02-19T11:22:43.314Z,30.03
2019-02-19T11:25:13.249Z,33.57
2019-02-19T11:27:42.782Z,40.93
2019-02-19T11:30:14.674Z,35.80
2019-02-19T11:32:44.331Z,36.27
2019-02-19T11:35:13.915Z,33.47
2019-02-19T11:37:43.518Z,32.07
2019-02-19T11:40:14.028Z,46.67
2019-02-19T11:42:43.620Z,43.10
2019-02-19T11:45:14.161Z,27.17
2019-02-19T11:47:43.926Z,23.83
2019-02-19T11:50:13.537Z,29.33
2019-02-19T11:52:43.244Z,38.37
2019-02-19T11:55:13.442Z,28.83
2019-02-19T11:57:42.974Z,33.10
2019-02-19T12:00:16.187Z,22.73
2019-02-19T12:02:45.813Z,31.53
2019-02-19T12:05:15.426Z,25.90
2019-02-19T12:07:44.978Z,23.27
2019-02-19T12:10:14.599Z,25.53
2019-02-19T12:12:44.195Z,28.47
2019-02-19T12:15:14.037Z,24.80
2019-02-19T12:17:43.586Z,27.73
2019-02-19T12:20:13.175Z,22.53
2019-02-19T12:22:42.729Z,36.20
2019-02-19T12:25:12.307Z,25.97
2019-02-19T12:27:41.974Z,51.57
2019-02-19T12:30:13.037Z,64.27
2019-02-19T12:32:42.587Z,27.77
2019-02-19T12:35:12.125Z,34.93
2019-02-19T12:37:41.689Z,41.80
2019-02-19T12:40:11.627Z,34.03
2019-02-19T12:42:41.262Z,35.50
2019-02-19T12:45:11.592Z,53.90
2019-02-19T12:47:41.272Z,36.27
2019-02-19T12:50:12.245Z,33.37
2019-02-19T12:52:41.874Z,22.20
2019-02-19T12:55:11.849Z,22.40
2019-02-19T12:57:41.400Z,49.67
2019-02-19T13:00:13.279Z,20.10
2019-02-19T13:02:44.123Z,24.37
2019-02-19T13:05:14.200Z,21.27
2019-02-19T13:07:43.833Z,18.23
2019-02-19T13:10:13.369Z,18.00
2019-02-19T13:12:42.934Z,16.63
2019-02-19T13:15:13.934Z,16.63
2019-02-19T13:17:43.564Z,19.70
2019-02-19T13:20:13.965Z,22.43
2019-02-19T13:22:43.645Z,31.90
2019-02-19T13:25:13.365Z,25.57
2019-02-19T13:27:42.998Z,20.60
2019-02-19T13:30:14.417Z,18.57
2019-02-19T13:32:43.900Z,34.43
2019-02-19T13:35:13.841Z,22.87
2019-02-19T13:37:43.496Z,20.70
2019-02-19T13:40:13.493Z,25.23
2019-02-19T13:42:43.139Z,14.63
2019-02-19T13:45:13.293Z,14.83
2019-02-19T13:47:42.860Z,19.40
2019-02-19T13:50:15.154Z,18.60
2019-02-19T13:52:52.431Z,25.40
2019-02-19T13:55:25.229Z,35.80
2019-02-19T13:57:54.886Z,19.70
2019-02-19T14:00:25.525Z,22.00
2019-02-19T14:02:55.094Z,18.40
2019-02-19T14:05:24.795Z,16.43
2019-02-19T14:07:54.491Z,43.10
2019-02-19T14:10:24.115Z,34.73
2019-02-19T14:12:53.677Z,21.93
2019-02-19T14:15:47.791Z,20.00
2019-02-19T14:18:21.982Z,34.87
2019-02-19T14:21:14.678Z,25.17
2019-02-19T14:24:01.511Z,15.90
2019-02-19T14:26:52.643Z,24.60
2019-02-19T14:29:41.919Z,34.23
2019-02-19T14:32:28.997Z,35.27
2019-02-19T14:35:15.717Z,35.33
2019-02-19T14:38:04.070Z,28.27
2019-02-19T14:40:51.124Z,80.93
2019-02-19T14:43:38.179Z,86.57
2019-02-19T14:46:25.313Z,73.20
2019-02-19T14:49:13.754Z,34.43
2019-02-19T14:52:00.965Z,69.60
2019-02-19T14:55:01.683Z,38.10
2019-02-19T14:57:42.984Z,61.63
2019-02-19T15:00:30.303Z,63.47
2019-02-19T15:03:17.375Z,48.87
2019-02-19T15:06:13.176Z,52.37
2019-02-19T15:08:55.045Z,112.23
2019-02-19T15:11:41.157Z,98.87
2019-02-19T15:14:38.466Z,64.23
2019-02-19T15:17:25.448Z,45.30
2019-02-19T15:20:28.928Z,59.03
2019-02-19T15:23:15.799Z,57.87
2019-02-19T15:26:04.209Z,66.80
2019-02-19T15:28:55.348Z,39.07
2019-02-19T15:31:43.703Z,39.73
2019-02-19T15:34:47.355Z,61.60
2019-02-19T15:37:29.433Z,55.47
2019-02-19T15:40:17.825Z,54.27
2019-02-19T15:43:09.041Z,39.40
2019-02-19T15:46:12.562Z,57.70
2019-02-19T15:48:59.709Z,70.33
2019-02-19T15:51:46.661Z,61.90
2019-02-19T15:54:24.973Z,63.80
2019-02-19T15:57:16.199Z,73.13
2019-02-19T16:00:13.648Z,79.50
2019-02-19T16:02:57.712Z,93.43
2019-02-19T16:05:37.026Z,97.77
2019-02-19T16:08:36.259Z,168.60
2019-02-19T16:11:30.904Z,99.33
2019-02-19T16:14:18.094Z,143.93
2019-02-19T16:17:18.609Z,136.40
2019-02-19T16:20:12.732Z,147.93
2019-02-19T16:22:52.102Z,100.33
2019-02-19T16:25:35.679Z,138.00
2019-02-19T16:28:13.813Z,146.33
2019-02-19T16:31:14.121Z,175.17
2019-02-19T16:34:05.583Z,187.77
2019-02-19T16:36:46.219Z,163.67
2019-02-19T16:39:32.535Z,162.97
2019-02-19T16:42:20.929Z,177.70
2019-02-19T16:44:57.460Z,198.87
2019-02-19T16:47:45.941Z,174.40
2019-02-19T16:50:37.201Z,161.80
2019-02-19T16:53:28.367Z,153.97
2019-02-19T16:56:15.611Z,158.50
2019-02-19T16:59:22.293Z,150.27
2019-02-19T17:02:05.523Z,167.93
2019-02-19T17:04:54.147Z,156.80
2019-02-19T17:07:41.076Z,177.43
2019-02-19T17:10:41.629Z,204.77
2019-02-19T17:13:24.953Z,213.00
2019-02-19T17:16:06.454Z,309.67
2019-02-19T17:18:57.831Z,342.57
2019-02-19T17:21:44.903Z,305.50
2019-02-19T17:24:42.612Z,252.13
2019-02-19T17:27:34.353Z,323.63
2019-02-19T17:30:22.933Z,238.27
2019-02-19T17:33:09.760Z,152.80
2019-02-19T17:36:13.288Z,153.10
2019-02-19T17:38:55.960Z,223.87
2019-02-19T17:41:50.247Z,225.53
2019-02-19T17:44:37.466Z,205.43
2019-02-19T17:47:35.176Z,192.87
2019-02-19T17:50:12.036Z,199.47
2019-02-19T17:53:01.087Z,210.27
2019-02-19T17:55:46.382Z,192.80
2019-02-19T17:58:40.887Z,216.10
2019-02-19T18:01:16.088Z,262.13
2019-02-19T18:04:16.811Z,342.37
2019-02-19T18:07:14.371Z,293.13
2019-02-19T18:10:14.930Z,238.03
2019-02-19T18:13:01.338Z,149.20
2019-02-19T18:15:59.141Z,177.67
2019-02-19T18:18:59.860Z,209.83
2019-02-19T18:21:29.432Z,239.10
2019-02-19T18:23:59.065Z,216.80
2019-02-19T18:26:28.674Z,253.03
2019-02-19T18:28:58.392Z,222.03
2019-02-19T18:31:28.074Z,183.77
2019-02-19T18:33:57.776Z,185.73
2019-02-19T18:36:27.491Z,158.87
2019-02-19T18:38:57.204Z,145.10
2019-02-19T18:41:26.864Z,164.40
2019-02-19T18:43:56.406Z,136.00
2019-02-19T18:46:25.997Z,165.67
2019-02-19T18:48:55.570Z,150.10
2019-02-19T18:51:25.121Z,132.30
2019-02-19T18:53:54.774Z,134.93
2019-02-19T18:56:24.320Z,131.53
2019-02-19T18:58:53.901Z,149.23
2019-02-19T19:01:23.457Z,118.37
2019-02-19T19:03:52.985Z,128.60
2019-02-19T19:06:22.574Z,211.43
2019-02-19T19:08:52.348Z,155.13
2019-02-19T19:11:21.990Z,127.40
2019-02-19T19:13:51.530Z,124.23
2019-02-19T19:16:21.202Z,154.77
2019-02-19T19:18:50.839Z,173.43
2019-02-19T19:21:20.388Z,158.40
2019-02-19T19:23:50.042Z,175.00
2019-02-19T19:26:19.621Z,184.13
2019-02-19T19:28:49.200Z,151.63
2019-02-19T19:31:18.774Z,196.43
2019-02-19T19:33:48.320Z,163.10
2019-02-19T19:36:17.888Z,271.30
2019-02-19T19:38:47.439Z,157.43
2019-02-19T19:41:17.065Z,141.07
2019-02-19T19:43:46.593Z,133.87
2019-02-19T19:46:16.135Z,141.13
2019-02-19T19:48:46.057Z,109.50
2019-02-19T19:51:17.414Z,112.63
2019-02-19T19:53:47.291Z,120.27
2019-02-19T19:56:16.877Z,112.60
2019-02-19T19:58:46.626Z,120.03
2019-02-19T20:01:16.246Z,111.00
2019-02-19T20:03:45.831Z,91.20
2019-02-19T20:06:15.469Z,149.07
2019-02-19T20:08:45.083Z,112.27
2019-02-19T20:11:14.672Z,114.40
2019-02-19T20:13:44.243Z,118.63
2019-02-19T20:16:13.951Z,100.13
2019-02-19T20:18:43.497Z,94.93
2019-02-19T20:21:13.258Z,106.37
2019-02-19T20:23:42.827Z,114.30
2019-02-19T20:26:12.419Z,127.50
2019-02-19T20:28:42.018Z,111.73
2019-02-19T20:31:11.655Z,98.10
2019-02-19T20:33:41.304Z,106.17
2019-02-19T20:36:10.936Z,90.33
2019-02-19T20:38:40.525Z,101.20
2019-02-19T20:41:10.131Z,111.57
2019-02-19T20:43:39.722Z,114.70
2019-02-19T20:46:11.020Z,103.63
2019-02-19T20:48:41.997Z,119.10
2019-02-19T20:51:13.465Z,147.03
2019-02-19T20:53:43.212Z,115.07
2019-02-19T20:56:12.940Z,125.83
2019-02-19T20:58:42.815Z,139.77
2019-02-19T21:01:12.664Z,88.30
2019-02-19T21:03:44.105Z,106.53
2019-02-19T21:06:14.137Z,109.17
2019-02-19T21:08:43.913Z,115.30
2019-02-19T21:11:14.257Z,184.93
2019-02-19T21:13:44.049Z,110.90
2019-02-19T21:16:13.802Z,116.47
2019-02-19T21:18:43.671Z,135.30
2019-02-19T21:21:13.467Z,94.40
2019-02-19T21:23:43.204Z,98.87
2019-02-19T21:26:12.916Z,88.53
2019-02-19T21:28:42.807Z,105.83
2019-02-19T21:31:12.576Z,163.83
2019-02-19T21:33:42.435Z,141.03
2019-02-19T21:36:12.162Z,103.17
2019-02-19T21:38:41.987Z,109.23
2019-02-19T21:41:11.727Z,129.67
2019-02-19T21:43:41.587Z,114.70
2019-02-19T21:46:11.365Z,113.23
2019-02-19T21:48:47.940Z,91.17
2019-02-19T21:51:12.811Z,115.07
2019-02-19T21:53:42.503Z,96.80
2019-02-19T21:56:12.297Z,90.87
2019-02-19T21:58:42.090Z,91.73
2019-02-19T22:01:11.838Z,91.43
2019-02-19T22:03:41.618Z,90.63
2019-02-19T22:06:11.436Z,90.57
2019-02-19T22:08:41.379Z,86.90
2019-02-19T22:11:11.240Z,81.90
2019-02-19T22:13:41.005Z,95.17
2019-02-19T22:16:10.853Z,90.67
2019-02-19T22:18:40.695Z,76.03
2019-02-19T22:21:29.290Z,81.07
2019-02-19T22:23:59.093Z,78.00
2019-02-19T22:26:28.913Z,64.30
2019-02-19T22:28:58.656Z,69.83
2019-02-19T22:31:28.533Z,60.53
2019-02-19T22:33:58.421Z,58.83
2019-02-19T22:36:28.119Z,62.83
2019-02-19T22:38:58.181Z,68.47
2019-02-19T22:41:27.927Z,70.13
2019-02-19T22:43:57.744Z,87.53
2019-02-19T22:46:27.589Z,140.97
2019-02-19T22:48:57.424Z,95.30
2019-02-19T22:51:27.223Z,89.87
2019-02-19T22:54:28.211Z,84.20
2019-02-19T22:56:58.043Z,79.20
2019-02-19T22:59:27.907Z,99.00
2019-02-19T23:02:02.432Z,86.00
2019-02-19T23:04:32.445Z,87.40
2019-02-19T23:07:02.331Z,65.83
2019-02-19T23:09:32.105Z,63.47
2019-02-19T23:12:01.962Z,74.40
2019-02-19T23:14:31.774Z,89.73
2019-02-19T23:17:01.580Z,82.27
2019-02-19T23:19:31.352Z,89.33
2019-02-19T23:22:01.121Z,121.37
2019-02-19T23:24:30.918Z,96.90
2019-02-19T23:27:00.758Z,65.63
2019-02-19T23:29:30.624Z,80.67
2019-02-19T23:32:00.454Z,65.23
2019-02-19T23:34:30.288Z,100.37
2019-02-19T23:37:11.740Z,98.03
2019-02-19T23:39:43.861Z,90.97
2019-02-19T23:42:12.949Z,77.50
2019-02-19T23:44:42.681Z,61.03
2019-02-19T23:47:12.409Z,64.60
2019-02-19T23:49:42.136Z,68.60
2019-02-19T23:52:11.905Z,68.87
2019-02-19T23:54:41.686Z,79.40
2019-02-19T23:57:11.382Z,72.73
2019-02-19T23:59:41.141Z,78.77
